Ilyas Efendiyev — 9HES8 — position and weather

sailwx.info

Track history (hours):
 
Tides and Currents Weather Stations Pressure Air Temp Water Temp Dewpoint Dewpoint Depression Visibility Wind Speed Wind Dir Waves Ship Positions

Ilyas Efendiyev

Last reported at 2017-Mar-27 23:31 UTC. Time now 2017-Mar-30 18:29 UTC.
Position N 32°54' E 034°54'.

Length 140 m; draft 3.5 m.

Type: Cargo ship. MMSI: 215901000.

Date/timePositionNaut miles runAvg speedWind from/ knotsBaromVisibWave heightAir tempDewpointWater temp
2017-Mar-27 23:31N 32°54' E 034°54'  
2017-Mar-25 09:33N 32°49' E 035°02'4 2.0
2017-Mar-25 07:32N 32°52' E 034°60'0 0.0
2017-Mar-24 23:33N 32°52' E 034°59'0 0.0
2017-Mar-24 22:33N 32°52' E 034°59'0 0.0
2017-Mar-24 21:27N 32°52' E 034°59'0 0.0
2017-Mar-24 20:33N 32°52' E 034°59'0 0.0
2017-Mar-24 19:33N 32°52' E 034°59'0 0.0
2017-Mar-24 18:32N 32°52' E 034°59'0 0.0
2017-Mar-24 17:32N 32°52' E 034°59'0 0.0
2017-Mar-24 16:32N 32°52' E 034°59'0 0.0
2017-Mar-24 15:32N 32°52' E 034°59'0 0.0
2017-Mar-24 14:31N 32°52' E 034°59'0 0.0
2017-Mar-24 13:31N 32°52' E 034°59'0 0.0
2017-Mar-24 12:33N 32°52' E 034°59'0 0.0
2017-Mar-24 11:30N 32°52' E 034°59'0 0.0
2017-Mar-24 10:33N 32°52' E 034°59'0 0.0
2017-Mar-24 09:31N 32°52' E 034°59'0 0.0
2017-Mar-24 08:33N 32°52' E 034°59'0 0.0
2017-Mar-24 07:30N 32°52' E 034°59'0 0.0
2017-Mar-24 06:30N 32°52' E 034°59'0 0.0
2017-Mar-24 05:33N 32°52' E 034°59'0 0.0
2017-Mar-24 04:32N 32°52' E 034°59'0 0.0
2017-Mar-24 03:33N 32°52' E 034°59'0 0.0
2017-Mar-24 02:30N 32°52' E 034°59'0 0.0
2017-Mar-24 01:32N 32°52' E 034°59'0 0.0
2017-Mar-24 00:30N 32°52' E 034°59'0 0.0
2017-Mar-23 23:33N 32°52' E 034°59'0 0.0
2017-Mar-23 22:32N 32°52' E 034°59'0 0.0
2017-Mar-23 21:32N 32°52' E 034°59'0 0.0
2017-Mar-23 20:26N 32°52' E 034°59'2 2.2
2017-Mar-23 19:33N 32°53' E 034°57'  
2017-Mar-19 01:32N 36°28' E 014°33'10 9.5
2017-Mar-19 00:27N 36°30' E 014°20'11 9.2
2017-Mar-18 23:18N 36°32' E 014°07'8 9.3
2017-Mar-18 22:27N 36°33' E 013°57'8 9.3
2017-Mar-18 21:33N 36°34' E 013°47'10 9.2
2017-Mar-18 20:26N 36°36' E 013°35'10 9.2
2017-Mar-18 19:23N 36°38' E 013°23'8 8.9
2017-Mar-18 18:31N 36°40' E 013°13'  
Track history (hours):
 
Tides and Currents Weather Stations Pressure Air Temp Water Temp Dewpoint Dewpoint Depression Visibility Wind Speed Wind Dir Waves Ship Positions

Ilyas Efendiyev

Last reported at 2017-Mar-27 23:31 UTC. Time now 2017-Mar-30 18:29 UTC.
Position N 32°54' E 034°54'.

Length 140 m; draft 3.5 m.

Type: Cargo ship. MMSI: 215901000.

Date/timePositionNaut miles runAvg speedWind from/ knotsBaromVisibWave heightAir tempDewpointWater temp
2017-Mar-27 23:31N 32°54' E 034°54'  
2017-Mar-25 09:33N 32°49' E 035°02'4 2.0
2017-Mar-25 07:32N 32°52' E 034°60'0 0.0
2017-Mar-24 23:33N 32°52' E 034°59'0 0.0
2017-Mar-24 22:33N 32°52' E 034°59'0 0.0
2017-Mar-24 21:27N 32°52' E 034°59'0 0.0
2017-Mar-24 20:33N 32°52' E 034°59'0 0.0
2017-Mar-24 19:33N 32°52' E 034°59'0 0.0
2017-Mar-24 18:32N 32°52' E 034°59'0 0.0
2017-Mar-24 17:32N 32°52' E 034°59'0 0.0
2017-Mar-24 16:32N 32°52' E 034°59'0 0.0
2017-Mar-24 15:32N 32°52' E 034°59'0 0.0
2017-Mar-24 14:31N 32°52' E 034°59'0 0.0
2017-Mar-24 13:31N 32°52' E 034°59'0 0.0
2017-Mar-24 12:33N 32°52' E 034°59'0 0.0
2017-Mar-24 11:30N 32°52' E 034°59'0 0.0
2017-Mar-24 10:33N 32°52' E 034°59'0 0.0
2017-Mar-24 09:31N 32°52' E 034°59'0 0.0
2017-Mar-24 08:33N 32°52' E 034°59'0 0.0
2017-Mar-24 07:30N 32°52' E 034°59'0 0.0
2017-Mar-24 06:30N 32°52' E 034°59'0 0.0
2017-Mar-24 05:33N 32°52' E 034°59'0 0.0
2017-Mar-24 04:32N 32°52' E 034°59'0 0.0
2017-Mar-24 03:33N 32°52' E 034°59'0 0.0
2017-Mar-24 02:30N 32°52' E 034°59'0 0.0
2017-Mar-24 01:32N 32°52' E 034°59'0 0.0
2017-Mar-24 00:30N 32°52' E 034°59'0 0.0
2017-Mar-23 23:33N 32°52' E 034°59'0 0.0
2017-Mar-23 22:32N 32°52' E 034°59'0 0.0
2017-Mar-23 21:32N 32°52' E 034°59'0 0.0
2017-Mar-23 20:26N 32°52' E 034°59'2 2.2
2017-Mar-23 19:33N 32°53' E 034°57'  
2017-Mar-19 01:32N 36°28' E 014°33'10 9.5
2017-Mar-19 00:27N 36°30' E 014°20'11 9.2
2017-Mar-18 23:18N 36°32' E 014°07'8 9.3
2017-Mar-18 22:27N 36°33' E 013°57'8 9.3
2017-Mar-18 21:33N 36°34' E 013°47'10 9.2
2017-Mar-18 20:26N 36°36' E 013°35'10 9.2
2017-Mar-18 19:23N 36°38' E 013°23'8 8.9
2017-Mar-18 18:31N 36°40' E 013°13'  

Dump ship's entire track history